createdAt,value
2022-11-07T00:02:31.969Z,13.50
2022-11-07T00:05:03.744Z,13.70
2022-11-07T00:07:40.632Z,13.40
2022-11-07T00:10:07.695Z,13.60
2022-11-07T00:12:42.437Z,14.00
2022-11-07T00:15:09.655Z,13.80
2022-11-07T00:17:36.327Z,13.00
2022-11-07T00:20:09.492Z,13.50
2022-11-07T00:23:04.124Z,13.10
2022-11-07T00:25:41.049Z,13.40
2022-11-07T00:28:17.833Z,13.50
2022-11-07T00:30:54.724Z,13.40
2022-11-07T00:33:41.234Z,13.90
2022-11-07T00:36:08.595Z,12.90
2022-11-07T00:38:36.542Z,12.80
2022-11-07T00:41:06.348Z,13.40
2022-11-07T00:43:33.863Z,13.40
2022-11-07T00:46:02.701Z,13.20
2022-11-07T00:48:29.867Z,12.80
2022-11-07T00:51:24.192Z,13.30
2022-11-07T00:53:51.300Z,13.30
2022-11-07T00:56:20.975Z,12.80
2022-11-07T00:58:48.849Z,13.20
2022-11-07T01:01:27.051Z,13.20
2022-11-07T01:04:29.419Z,13.40
2022-11-07T01:06:57.174Z,13.50
2022-11-07T01:09:24.898Z,13.30
2022-11-07T01:11:51.590Z,13.40
2022-11-07T01:14:20.880Z,13.40
2022-11-07T01:16:50.360Z,13.30
2022-11-07T01:19:33.225Z,13.30
2022-11-07T01:22:10.041Z,13.90
2022-11-07T01:25:19.693Z,13.20
2022-11-07T01:28:11.587Z,13.50
2022-11-07T01:30:46.569Z,13.20
2022-11-07T01:33:13.947Z,13.20
2022-11-07T01:35:42.170Z,13.70
2022-11-07T01:38:09.853Z,13.50
2022-11-07T01:41:21.665Z,13.30
2022-11-07T01:44:26.274Z,13.60
2022-11-07T01:47:00.645Z,13.20
2022-11-07T01:49:39.837Z,13.70
2022-11-07T01:52:11.051Z,13.80
2022-11-07T01:54:45.427Z,13.80
2022-11-07T01:57:20.238Z,13.70
2022-11-07T01:59:47.497Z,14.00
2022-11-07T02:02:15.404Z,13.90
2022-11-07T02:04:42.812Z,13.50
2022-11-07T02:07:18.290Z,13.10
2022-11-07T02:09:45.810Z,13.20
2022-11-07T02:12:13.558Z,13.30
2022-11-07T02:14:42.181Z,13.40
2022-11-07T02:17:13.396Z,13.60
2022-11-07T02:19:49.034Z,13.50
2022-11-07T02:22:41.214Z,13.40
2022-11-07T02:25:11.062Z,12.90
2022-11-07T02:27:39.359Z,13.10
2022-11-07T02:30:14.703Z,13.60
2022-11-07T02:32:41.629Z,13.60
2022-11-07T02:35:34.674Z,13.20
2022-11-07T02:38:06.470Z,13.40
2022-11-07T02:40:34.037Z,13.50
2022-11-07T02:43:01.110Z,13.80
2022-11-07T02:45:35.821Z,13.50
2022-11-07T02:48:02.931Z,13.10
2022-11-07T02:50:29.605Z,13.20
2022-11-07T02:52:56.376Z,13.10
2022-11-07T02:55:23.041Z,13.40
2022-11-07T02:57:49.684Z,13.60
2022-11-07T03:00:16.543Z,13.00
2022-11-07T03:02:49.979Z,13.10
2022-11-07T03:05:18.955Z,12.90
2022-11-07T03:07:47.418Z,13.20
2022-11-07T03:10:16.146Z,13.00
2022-11-07T03:12:43.270Z,13.10
2022-11-07T03:15:11.590Z,13.50
2022-11-07T03:17:38.319Z,13.50
2022-11-07T03:20:05.757Z,13.10
2022-11-07T03:22:32.522Z,13.30
2022-11-07T03:24:59.254Z,13.20
2022-11-07T03:27:26.105Z,13.00
2022-11-07T03:29:52.878Z,13.40
2022-11-07T03:32:19.558Z,13.30
2022-11-07T03:34:46.348Z,13.30
2022-11-07T03:37:13.083Z,12.90
2022-11-07T03:39:39.795Z,12.70
2022-11-07T03:42:06.545Z,13.30
2022-11-07T03:44:33.313Z,13.00
2022-11-07T03:46:59.980Z,12.90
2022-11-07T03:49:27.043Z,12.80
2022-11-07T03:51:53.808Z,13.10
2022-11-07T03:54:20.443Z,13.10
2022-11-07T03:56:47.188Z,12.80
2022-11-07T03:59:13.843Z,12.60
2022-11-07T04:01:40.578Z,12.60
2022-11-07T04:04:08.653Z,12.50
2022-11-07T04:06:35.368Z,12.30
2022-11-07T04:09:02.019Z,12.80
2022-11-07T04:11:47.258Z,12.60
2022-11-07T04:14:32.571Z,12.70
2022-11-07T04:17:18.034Z,12.50
2022-11-07T04:19:55.736Z,12.60
2022-11-07T04:22:24.005Z,13.10
2022-11-07T04:24:51.042Z,13.10
2022-11-07T04:27:36.755Z,13.00
2022-11-07T04:30:19.608Z,12.90
2022-11-07T04:32:51.049Z,12.60
2022-11-07T04:35:19.734Z,13.70
2022-11-07T04:37:47.258Z,13.20
2022-11-07T04:40:15.135Z,12.70
2022-11-07T04:42:42.292Z,12.60
2022-11-07T04:45:10.191Z,13.00
2022-11-07T04:47:40.396Z,12.80
2022-11-07T04:50:08.308Z,12.60
2022-11-07T04:52:36.333Z,12.50
2022-11-07T04:55:03.922Z,12.40
2022-11-07T04:57:30.611Z,12.50
2022-11-07T04:59:57.373Z,13.00
2022-11-07T05:02:25.399Z,12.90
2022-11-07T05:04:52.983Z,13.00
2022-11-07T05:07:20.448Z,13.30
2022-11-07T05:09:47.356Z,13.00
2022-11-07T05:12:14.149Z,12.60
2022-11-07T05:14:40.895Z,12.90
2022-11-07T05:17:07.842Z,13.00
2022-11-07T05:19:34.485Z,12.70
2022-11-07T05:22:19.881Z,12.50
2022-11-07T05:24:47.643Z,12.70
2022-11-07T05:27:19.003Z,12.50
2022-11-07T05:29:45.828Z,12.70
2022-11-07T05:32:13.125Z,13.00
2022-11-07T05:34:39.970Z,12.90
2022-11-07T05:37:11.692Z,13.40
2022-11-07T05:39:38.676Z,13.00
2022-11-07T05:42:05.660Z,13.00
2022-11-07T05:44:32.337Z,12.60
2022-11-07T05:47:00.898Z,12.70
2022-11-07T05:49:27.841Z,13.00
2022-11-07T05:51:56.912Z,12.80
2022-11-07T05:54:24.665Z,12.70
2022-11-07T05:56:55.149Z,12.80
2022-11-07T05:59:21.902Z,13.20
2022-11-07T06:01:51.275Z,13.30
2022-11-07T06:04:18.212Z,13.10
2022-11-07T06:06:45.976Z,13.30
2022-11-07T06:09:12.798Z,13.10
2022-11-07T06:11:39.433Z,13.60
2022-11-07T06:14:06.370Z,13.90
2022-11-07T06:16:35.125Z,14.10
2022-11-07T06:19:02.357Z,13.70
2022-11-07T06:21:29.417Z,13.90
2022-11-07T06:23:56.157Z,14.50
2022-11-07T06:26:22.824Z,14.70
2022-11-07T06:28:49.555Z,14.30
2022-11-07T06:31:16.826Z,13.90
2022-11-07T06:33:43.615Z,14.40
2022-11-07T06:36:13.598Z,14.30
2022-11-07T06:38:40.492Z,14.30
2022-11-07T06:41:10.005Z,14.70
2022-11-07T06:43:38.566Z,14.80
2022-11-07T06:46:11.183Z,14.10
2022-11-07T06:48:38.012Z,15.00
2022-11-07T06:51:09.722Z,14.70
2022-11-07T06:53:37.070Z,14.50
2022-11-07T06:56:07.213Z,15.10
2022-11-07T06:58:34.485Z,14.90
2022-11-07T07:01:03.040Z,14.40
2022-11-07T07:03:30.255Z,14.70
2022-11-07T07:06:05.026Z,14.60
2022-11-07T07:08:33.052Z,14.00
2022-11-07T07:11:07.775Z,14.30
2022-11-07T07:13:35.271Z,15.00
2022-11-07T07:16:02.626Z,14.90
2022-11-07T07:18:30.598Z,14.80
2022-11-07T07:21:08.548Z,14.50
2022-11-07T07:23:36.189Z,13.80
2022-11-07T07:26:05.733Z,13.80
2022-11-07T07:28:32.640Z,13.90
2022-11-07T07:31:23.190Z,13.80
2022-11-07T07:33:50.169Z,14.80
2022-11-07T07:36:20.830Z,14.70
2022-11-07T07:38:49.674Z,14.20
2022-11-07T07:41:17.317Z,14.00
2022-11-07T07:43:44.101Z,13.90
2022-11-07T07:46:17.795Z,14.00
2022-11-07T07:48:44.600Z,14.30
2022-11-07T07:51:11.272Z,14.00
2022-11-07T07:53:37.922Z,14.70
2022-11-07T07:56:06.863Z,14.50
2022-11-07T07:58:33.747Z,15.30
2022-11-07T08:01:00.806Z,15.20
2022-11-07T08:03:32.236Z,14.50
2022-11-07T08:06:06.988Z,14.60
2022-11-07T08:08:37.902Z,15.40
2022-11-07T08:11:08.429Z,15.00
2022-11-07T08:13:49.363Z,14.20
2022-11-07T08:16:17.112Z,15.00
2022-11-07T08:18:43.811Z,15.50
2022-11-07T08:21:10.633Z,15.70
2022-11-07T08:23:38.035Z,16.20
2022-11-07T08:26:05.709Z,15.70
2022-11-07T08:28:35.502Z,15.50
2022-11-07T08:31:08.089Z,15.70
2022-11-07T08:33:35.814Z,15.10
2022-11-07T08:36:05.976Z,15.10
2022-11-07T08:38:34.476Z,15.20
2022-11-07T08:41:01.257Z,14.80
2022-11-07T08:43:28.435Z,15.80
2022-11-07T08:45:55.813Z,15.00
2022-11-07T08:48:23.039Z,15.40
2022-11-07T08:50:57.611Z,15.30
2022-11-07T08:53:26.263Z,15.00
2022-11-07T08:55:53.217Z,14.90
2022-11-07T08:58:20.123Z,15.00
2022-11-07T09:00:46.990Z,15.00
2022-11-07T09:06:00.847Z,15.90
2022-11-07T09:08:33.656Z,14.70
2022-11-07T09:11:04.882Z,16.20
2022-11-07T09:13:32.909Z,15.90
2022-11-07T09:16:01.128Z,15.80
2022-11-07T09:18:28.473Z,16.40
2022-11-07T09:20:55.740Z,15.60
2022-11-07T09:23:22.507Z,16.30
2022-11-07T09:25:49.386Z,15.30
2022-11-07T09:28:16.364Z,15.00
2022-11-07T09:30:43.519Z,15.60
2022-11-07T09:33:10.469Z,16.40
2022-11-07T09:35:37.234Z,15.90
2022-11-07T09:38:03.968Z,15.70
2022-11-07T09:40:57.428Z,16.10
2022-11-07T09:43:45.762Z,15.90
2022-11-07T09:46:22.582Z,15.90
2022-11-07T09:49:16.401Z,15.90
2022-11-07T09:51:58.666Z,15.90
2022-11-07T09:54:29.050Z,15.60
2022-11-07T09:56:57.946Z,15.80
2022-11-07T09:59:25.948Z,15.20
2022-11-07T10:01:52.815Z,16.10
2022-11-07T10:04:25.844Z,15.80
2022-11-07T10:07:10.739Z,15.30
2022-11-07T10:09:57.435Z,15.70
2022-11-07T10:12:44.496Z,15.40
2022-11-07T10:15:14.127Z,16.20
2022-11-07T10:18:02.444Z,15.90
2022-11-07T10:21:36.553Z,15.70
2022-11-07T10:24:10.423Z,15.40
2022-11-07T10:26:37.631Z,15.50
2022-11-07T10:29:20.750Z,16.60
2022-11-07T10:32:23.793Z,15.80
2022-11-07T10:35:15.026Z,15.60
2022-11-07T10:37:41.754Z,15.30
2022-11-07T10:40:19.608Z,16.10
2022-11-07T10:42:48.566Z,16.00
2022-11-07T10:45:17.629Z,16.10
2022-11-07T10:47:57.262Z,16.10
2022-11-07T10:50:25.581Z,16.10
2022-11-07T10:53:09.396Z,15.90
2022-11-07T10:55:47.386Z,16.20
2022-11-07T10:58:20.643Z,16.10
2022-11-07T11:01:04.013Z,15.90
2022-11-07T11:03:45.434Z,15.50
2022-11-07T11:06:18.711Z,16.40
2022-11-07T11:08:47.480Z,16.40
2022-11-07T11:11:34.418Z,16.40
2022-11-07T11:14:21.259Z,15.90
2022-11-07T11:16:54.569Z,16.20
2022-11-07T11:19:28.394Z,15.90
2022-11-07T11:21:58.357Z,16.30
2022-11-07T11:24:40.236Z,16.50
2022-11-07T11:27:22.628Z,16.20
2022-11-07T11:30:08.441Z,15.70
2022-11-07T11:32:40.970Z,15.60
2022-11-07T11:35:42.262Z,16.20
2022-11-07T11:38:19.982Z,16.60
2022-11-07T11:41:04.695Z,15.90
2022-11-07T11:43:51.430Z,15.70
2022-11-07T11:46:38.027Z,15.30
2022-11-07T11:49:28.461Z,15.10
2022-11-07T11:52:02.878Z,15.60
2022-11-07T11:54:29.601Z,16.20
2022-11-07T11:57:08.246Z,15.70
2022-11-07T12:00:06.070Z,16.00
2022-11-07T12:02:32.809Z,16.00
2022-11-07T12:05:26.766Z,15.40
2022-11-07T12:08:00.015Z,15.60
2022-11-07T12:10:48.904Z,16.20
2022-11-07T12:13:43.195Z,16.40
2022-11-07T12:16:51.253Z,15.80
2022-11-07T12:19:29.352Z,15.90
2022-11-07T12:21:59.223Z,15.20
2022-11-07T12:24:34.579Z,15.50
2022-11-07T12:27:28.729Z,15.70
2022-11-07T12:30:29.519Z,15.70
2022-11-07T12:32:59.335Z,15.70
2022-11-07T12:35:48.458Z,15.50
2022-11-07T12:38:28.380Z,15.50
2022-11-07T12:41:04.697Z,15.00
2022-11-07T12:43:49.481Z,15.80
2022-11-07T12:46:48.516Z,15.70
2022-11-07T12:49:46.436Z,15.30
2022-11-07T12:52:34.680Z,15.60
2022-11-07T12:55:24.509Z,15.50
2022-11-07T12:57:54.562Z,15.30
2022-11-07T13:00:29.509Z,15.70
2022-11-07T13:03:27.126Z,15.30
2022-11-07T13:05:57.180Z,15.80
2022-11-07T13:08:53.718Z,15.60
2022-11-07T13:12:06.370Z,15.50
2022-11-07T13:14:36.975Z,15.20
2022-11-07T13:17:12.811Z,15.30
2022-11-07T13:19:45.495Z,15.80
2022-11-07T13:22:22.555Z,15.90
2022-11-07T13:25:11.879Z,15.50
2022-11-07T13:27:59.248Z,15.20
2022-11-07T13:30:40.023Z,15.90
2022-11-07T13:33:24.250Z,15.30
2022-11-07T13:36:27.243Z,15.10
2022-11-07T13:38:58.742Z,15.20
2022-11-07T13:41:25.646Z,15.10
2022-11-07T13:44:08.087Z,15.10
2022-11-07T13:46:48.956Z,15.50
2022-11-07T13:49:23.240Z,15.10
2022-11-07T13:51:52.227Z,15.40
2022-11-07T13:54:31.099Z,15.20
2022-11-07T13:57:11.059Z,15.10
2022-11-07T14:00:10.958Z,15.00
2022-11-07T14:02:37.972Z,14.60
2022-11-07T14:05:17.523Z,14.80
2022-11-07T14:08:06.206Z,14.90
2022-11-07T14:10:38.774Z,14.80
2022-11-07T14:13:09.289Z,14.50
2022-11-07T14:15:43.111Z,14.70
2022-11-07T14:18:18.752Z,15.40
2022-11-07T14:20:55.457Z,15.30
2022-11-07T14:23:24.518Z,15.00
2022-11-07T14:26:17.886Z,15.20
2022-11-07T14:28:44.799Z,15.20
2022-11-07T14:31:35.950Z,15.00
2022-11-07T14:34:18.353Z,15.10
2022-11-07T14:36:54.043Z,14.80
2022-11-07T14:39:22.535Z,15.10
2022-11-07T14:41:50.645Z,15.60
2022-11-07T14:47:28.174Z,15.10
2022-11-07T14:49:55.415Z,15.80
2022-11-07T14:52:26.596Z,15.30
2022-11-07T14:55:33.412Z,15.30
2022-11-07T14:58:03.169Z,15.00
2022-11-07T15:00:30.639Z,15.10
2022-11-07T15:02:59.147Z,14.60
2022-11-07T15:05:28.172Z,14.80
2022-11-07T15:07:56.256Z,15.00
2022-11-07T15:10:32.133Z,14.80
2022-11-07T15:13:04.621Z,15.00
2022-11-07T15:15:37.615Z,15.30
2022-11-07T15:18:06.756Z,14.80
2022-11-07T15:20:38.753Z,14.80
2022-11-07T15:23:14.584Z,14.80
2022-11-07T15:25:51.600Z,15.10
2022-11-07T15:28:19.978Z,15.20
2022-11-07T15:30:47.479Z,15.00
2022-11-07T15:33:17.553Z,14.60
2022-11-07T15:35:46.854Z,14.70
2022-11-07T15:38:26.265Z,14.70
2022-11-07T15:40:53.334Z,15.00
2022-11-07T15:43:20.709Z,15.10
2022-11-07T15:45:52.892Z,14.60
2022-11-07T15:48:33.709Z,14.60
2022-11-07T15:51:02.414Z,15.10
2022-11-07T15:53:29.442Z,14.80
2022-11-07T15:55:59.083Z,14.70
2022-11-07T15:58:28.534Z,14.90
2022-11-07T16:00:56.968Z,15.00
2022-11-07T16:03:25.257Z,14.70
2022-11-07T16:05:57.546Z,14.70
2022-11-07T16:08:25.073Z,14.80
2022-11-07T16:10:58.759Z,14.50
2022-11-07T16:13:25.519Z,14.90
2022-11-07T16:15:56.943Z,14.70
2022-11-07T16:18:23.643Z,15.00
2022-11-07T16:20:50.741Z,15.20
2022-11-07T16:23:18.493Z,14.60
2022-11-07T16:25:48.129Z,14.60
2022-11-07T16:28:29.926Z,14.80
2022-11-07T16:30:57.217Z,14.70
2022-11-07T16:33:25.017Z,14.50
2022-11-07T16:36:04.238Z,14.90
2022-11-07T16:38:35.404Z,14.90
2022-11-07T16:41:02.543Z,14.50
2022-11-07T16:43:34.852Z,14.60
2022-11-07T16:46:01.800Z,15.00
2022-11-07T16:48:29.837Z,14.40
2022-11-07T16:50:57.518Z,14.40
2022-11-07T16:53:25.361Z,14.70
2022-11-07T16:55:55.115Z,14.80
2022-11-07T16:58:30.369Z,14.50
2022-11-07T17:00:59.431Z,14.70
2022-11-07T17:03:26.857Z,14.40
2022-11-07T17:05:57.001Z,14.40
2022-11-07T17:08:28.569Z,14.60
2022-11-07T17:10:55.411Z,14.90
2022-11-07T17:13:23.140Z,14.90
2022-11-07T17:15:50.125Z,14.80
2022-11-07T17:18:22.095Z,14.70
2022-11-07T17:20:51.585Z,14.90
2022-11-07T17:23:19.200Z,15.40
2022-11-07T17:25:51.949Z,15.00
2022-11-07T17:28:19.140Z,15.30
2022-11-07T17:30:46.234Z,15.30
2022-11-07T17:33:12.909Z,14.70
2022-11-07T17:35:39.787Z,14.60
2022-11-07T17:38:06.792Z,14.50
2022-11-07T17:40:34.582Z,15.00
2022-11-07T17:43:01.374Z,14.90
2022-11-07T17:45:28.388Z,14.70
2022-11-07T17:47:55.137Z,14.50
2022-11-07T17:50:22.843Z,14.70
2022-11-07T17:52:52.348Z,14.70
2022-11-07T17:55:20.191Z,14.80
2022-11-07T17:57:47.128Z,14.90
2022-11-07T18:00:17.156Z,15.00
2022-11-07T18:02:44.396Z,14.90
2022-11-07T18:05:15.760Z,15.10
2022-11-07T18:07:44.009Z,14.80
2022-11-07T18:10:12.612Z,14.90
2022-11-07T18:12:39.411Z,14.70
2022-11-07T18:15:06.805Z,14.80
2022-11-07T18:17:35.563Z,14.80
2022-11-07T18:20:05.106Z,14.80
2022-11-07T18:22:31.775Z,14.70
2022-11-07T18:24:58.688Z,15.00
2022-11-07T18:27:25.421Z,14.90
2022-11-07T18:29:52.210Z,14.90
2022-11-07T18:32:18.953Z,14.90
2022-11-07T18:34:45.714Z,15.10
2022-11-07T18:37:12.499Z,14.90
2022-11-07T18:39:40.011Z,14.90
2022-11-07T18:42:07.030Z,14.80
2022-11-07T18:44:33.785Z,14.80
2022-11-07T18:47:00.636Z,14.50
2022-11-07T18:49:27.339Z,14.90
2022-11-07T18:51:54.032Z,15.00
2022-11-07T18:54:22.182Z,14.70
2022-11-07T18:56:49.019Z,14.90
2022-11-07T18:59:15.899Z,14.80
2022-11-07T19:01:42.782Z,14.80
2022-11-07T19:04:11.757Z,15.20
2022-11-07T19:06:55.653Z,15.00
2022-11-07T19:09:28.480Z,14.60
2022-11-07T19:11:56.523Z,15.10
2022-11-07T19:14:23.821Z,15.10
2022-11-07T19:16:50.958Z,14.90
2022-11-07T19:19:19.828Z,14.70
2022-11-07T19:21:48.885Z,14.60
2022-11-07T19:24:15.629Z,15.00
2022-11-07T19:26:43.669Z,14.70
2022-11-07T19:29:10.464Z,14.60
2022-11-07T19:31:38.074Z,14.60
2022-11-07T19:34:05.339Z,14.60
2022-11-07T19:36:32.700Z,14.50
2022-11-07T19:38:59.472Z,14.50
2022-11-07T19:41:26.122Z,14.60
2022-11-07T19:43:52.906Z,14.60
2022-11-07T19:46:22.437Z,14.80
2022-11-07T19:48:50.419Z,14.70
2022-11-07T19:51:22.475Z,14.40
2022-11-07T19:53:57.703Z,14.70
2022-11-07T19:56:26.877Z,14.80
2022-11-07T19:59:06.535Z,14.70
2022-11-07T20:01:34.399Z,14.50
2022-11-07T20:04:02.439Z,14.50
2022-11-07T20:06:38.177Z,14.90
2022-11-07T20:09:08.630Z,14.90
2022-11-07T20:11:35.735Z,14.80
2022-11-07T20:14:03.884Z,14.70
2022-11-07T20:16:32.616Z,14.80
2022-11-07T20:19:00.400Z,14.60
2022-11-07T20:21:29.139Z,14.70
2022-11-07T20:23:58.090Z,15.00
2022-11-07T20:26:26.573Z,14.70
2022-11-07T20:28:53.560Z,14.80
2022-11-07T20:31:22.928Z,14.60
2022-11-07T20:33:50.181Z,14.40
2022-11-07T20:36:18.520Z,14.70
2022-11-07T20:38:45.388Z,14.40
2022-11-07T20:41:13.199Z,14.50
2022-11-07T20:43:40.336Z,14.50
2022-11-07T20:46:09.723Z,14.80
2022-11-07T20:48:36.695Z,14.80
2022-11-07T20:51:07.381Z,14.80
2022-11-07T20:53:46.759Z,14.90
2022-11-07T20:56:17.398Z,14.70
2022-11-07T20:58:44.523Z,14.60
2022-11-07T21:01:14.426Z,14.70
2022-11-07T21:03:41.487Z,14.80
2022-11-07T21:06:11.427Z,14.50
2022-11-07T21:08:43.193Z,14.80
2022-11-07T21:11:11.355Z,14.80
2022-11-07T21:13:38.080Z,14.90
2022-11-07T21:16:05.735Z,14.70
2022-11-07T21:18:32.696Z,14.70
2022-11-07T21:21:27.502Z,14.70
2022-11-07T21:23:56.399Z,14.80
2022-11-07T21:26:35.637Z,14.70
2022-11-07T21:29:07.588Z,15.20
2022-11-07T21:31:35.891Z,15.00
2022-11-07T21:34:03.475Z,15.30
2022-11-07T21:36:30.981Z,15.00
2022-11-07T21:38:59.594Z,14.90
2022-11-07T21:41:26.941Z,15.00
2022-11-07T21:43:53.699Z,14.50
2022-11-07T21:46:23.399Z,14.90
2022-11-07T21:48:51.311Z,15.10
2022-11-07T21:51:27.098Z,15.30
2022-11-07T21:54:06.145Z,15.10
2022-11-07T21:56:36.268Z,15.20
2022-11-07T21:59:07.699Z,15.20
2022-11-07T22:01:36.259Z,14.80
2022-11-07T22:04:09.857Z,15.30
2022-11-07T22:06:39.858Z,15.40
2022-11-07T22:09:08.393Z,14.90
2022-11-07T22:11:35.354Z,15.00
2022-11-07T22:14:07.637Z,15.00
2022-11-07T22:16:34.476Z,15.10
2022-11-07T22:19:01.498Z,15.00
2022-11-07T22:21:28.504Z,15.30
2022-11-07T22:23:56.122Z,15.50
2022-11-07T22:26:25.178Z,15.40
2022-11-07T22:28:52.582Z,15.50
2022-11-07T22:31:23.004Z,15.30
2022-11-07T22:33:50.389Z,15.00
2022-11-07T22:36:17.461Z,15.50
2022-11-07T22:38:44.685Z,15.20
2022-11-07T22:41:15.966Z,15.20
2022-11-07T22:43:42.639Z,14.90
2022-11-07T22:46:13.561Z,15.20
2022-11-07T22:48:40.944Z,14.70
2022-11-07T22:51:13.592Z,14.50
2022-11-07T22:53:40.680Z,14.90
2022-11-07T22:56:15.294Z,14.80
2022-11-07T22:58:42.894Z,14.70
2022-11-07T23:01:20.934Z,14.70
2022-11-07T23:03:48.437Z,15.20
2022-11-07T23:06:16.236Z,14.90
2022-11-07T23:08:43.249Z,15.20
2022-11-07T23:14:06.495Z,15.20
2022-11-07T23:16:38.475Z,15.00
2022-11-07T23:19:08.438Z,15.20
2022-11-07T23:21:35.968Z,15.20
2022-11-07T23:24:03.421Z,15.60
2022-11-07T23:26:34.499Z,15.30
2022-11-07T23:29:10.104Z,15.10
2022-11-07T23:31:37.216Z,15.10
2022-11-07T23:34:03.905Z,15.00
2022-11-07T23:36:30.636Z,14.80
2022-11-07T23:38:57.333Z,14.50
2022-11-07T23:41:24.039Z,14.60
2022-11-07T23:43:52.980Z,15.00
2022-11-07T23:46:38.521Z,14.60
2022-11-07T23:49:24.062Z,14.50
2022-11-07T23:51:50.829Z,15.10
2022-11-07T23:54:36.267Z,14.50
2022-11-07T23:57:03.034Z,14.50
2022-11-07T23:59:48.310Z,14.70
